createdAt,value
2023-05-13T00:00:38.465Z,10.77
2023-05-13T00:03:05.046Z,12.32
2023-05-13T00:05:31.640Z,12.77
2023-05-13T00:07:58.170Z,11.70
2023-05-13T00:10:24.749Z,11.02
2023-05-13T00:12:51.274Z,11.52
2023-05-13T00:15:17.877Z,11.38
2023-05-13T00:17:44.459Z,11.57
2023-05-13T00:20:11.239Z,11.32
2023-05-13T00:22:37.771Z,12.75
2023-05-13T00:25:04.536Z,12.27
2023-05-13T00:27:31.071Z,12.60
2023-05-13T00:29:57.612Z,12.38
2023-05-13T00:32:24.168Z,12.55
2023-05-13T00:34:50.683Z,12.15
2023-05-13T00:37:17.210Z,12.40
2023-05-13T00:39:43.791Z,11.77
2023-05-13T00:42:10.399Z,11.30
2023-05-13T00:44:36.928Z,11.40
2023-05-13T00:47:05.251Z,11.70
2023-05-13T00:49:33.477Z,12.25
2023-05-13T00:52:01.059Z,12.73
2023-05-13T00:54:28.885Z,12.30
2023-05-13T00:56:57.265Z,12.35
2023-05-13T00:59:25.575Z,12.55
2023-05-13T01:02:20.668Z,12.60
2023-05-13T01:05:17.072Z,11.77
2023-05-13T01:08:10.942Z,12.43
2023-05-13T01:10:57.720Z,11.82
2023-05-13T01:13:30.516Z,11.75
2023-05-13T01:16:03.546Z,12.65
2023-05-13T01:18:51.676Z,12.05
2023-05-13T01:21:26.126Z,12.13
2023-05-13T01:23:52.788Z,12.13
2023-05-13T01:26:20.401Z,12.30
2023-05-13T01:28:47.418Z,12.23
2023-05-13T01:31:15.311Z,12.90
2023-05-13T01:33:43.213Z,12.10
2023-05-13T01:36:10.481Z,12.55
2023-05-13T01:38:39.000Z,13.15
2023-05-13T01:41:05.671Z,12.43
2023-05-13T01:43:32.339Z,12.90
2023-05-13T01:45:58.911Z,12.70
2023-05-13T01:48:25.555Z,12.75
2023-05-13T01:50:52.055Z,12.95
2023-05-13T01:53:19.669Z,13.48
2023-05-13T01:55:46.169Z,13.45
2023-05-13T01:58:12.680Z,13.38
2023-05-13T02:00:39.202Z,13.18
2023-05-13T02:03:05.847Z,12.85
2023-05-13T02:05:32.454Z,13.65
2023-05-13T02:07:58.973Z,13.25
2023-05-13T02:10:25.431Z,13.48
2023-05-13T02:12:52.015Z,12.32
2023-05-13T02:15:18.598Z,14.00
2023-05-13T02:17:45.149Z,13.65
2023-05-13T02:20:12.568Z,13.95
2023-05-13T02:22:39.137Z,13.77
2023-05-13T02:25:05.993Z,13.32
2023-05-13T02:27:32.529Z,13.50
2023-05-13T02:29:59.029Z,12.65
2023-05-13T02:32:25.551Z,12.60
2023-05-13T02:34:52.082Z,11.80
2023-05-13T02:37:18.601Z,12.23
2023-05-13T02:39:45.117Z,14.05
2023-05-13T02:42:11.633Z,13.60
2023-05-13T02:44:38.159Z,14.27
2023-05-13T02:47:04.991Z,13.45
2023-05-13T02:49:31.515Z,12.73
2023-05-13T02:51:58.020Z,12.45
2023-05-13T02:54:24.526Z,13.73
2023-05-13T02:56:51.011Z,14.00
2023-05-13T02:59:17.498Z,14.60
2023-05-13T03:01:44.152Z,14.25
2023-05-13T03:04:12.903Z,14.23
2023-05-13T03:06:39.442Z,15.27
2023-05-13T03:09:05.933Z,15.43
2023-05-13T03:11:32.623Z,14.98
2023-05-13T03:13:59.131Z,14.73
2023-05-13T03:16:25.651Z,14.30
2023-05-13T03:18:52.246Z,14.60
2023-05-13T03:21:18.940Z,14.57
2023-05-13T03:23:45.558Z,15.32
2023-05-13T03:26:12.068Z,15.68
2023-05-13T03:28:38.625Z,15.10
2023-05-13T03:31:05.417Z,15.13
2023-05-13T03:33:31.975Z,14.57
2023-05-13T03:35:58.535Z,14.85
2023-05-13T03:38:25.043Z,14.50
2023-05-13T03:40:51.583Z,15.65
2023-05-13T03:43:18.177Z,16.02
2023-05-13T03:45:44.677Z,14.75
2023-05-13T03:48:11.240Z,16.60
2023-05-13T03:50:37.756Z,14.65
2023-05-13T03:53:04.476Z,15.32
2023-05-13T03:55:31.075Z,14.88
2023-05-13T03:57:57.551Z,15.35
2023-05-13T04:00:24.155Z,15.13
2023-05-13T04:02:50.876Z,16.02
2023-05-13T04:05:17.595Z,15.85
2023-05-13T04:07:44.236Z,15.13
2023-05-13T04:10:13.807Z,16.00
2023-05-13T04:12:41.849Z,14.75
2023-05-13T04:15:08.641Z,15.32
2023-05-13T04:17:35.186Z,14.23
2023-05-13T04:20:01.701Z,15.18
2023-05-13T04:22:28.186Z,14.55
2023-05-13T04:24:54.701Z,13.18
2023-05-13T04:27:21.264Z,14.70
2023-05-13T04:29:47.766Z,14.50
2023-05-13T04:32:14.399Z,14.35
2023-05-13T04:34:41.323Z,14.32
2023-05-13T04:37:07.809Z,13.93
2023-05-13T04:39:34.370Z,13.40
2023-05-13T04:42:00.896Z,14.13
2023-05-13T04:44:27.403Z,14.55
2023-05-13T04:46:53.892Z,13.80
2023-05-13T04:49:20.407Z,14.15
2023-05-13T04:51:47.357Z,13.75
2023-05-13T04:54:14.271Z,13.50
2023-05-13T04:56:40.809Z,13.13
2023-05-13T04:59:09.260Z,12.52
2023-05-13T05:01:35.910Z,13.52
2023-05-13T05:04:02.622Z,13.43
2023-05-13T05:06:29.186Z,14.70
2023-05-13T05:08:55.674Z,12.93
2023-05-13T05:11:22.172Z,13.68
2023-05-13T05:13:48.743Z,13.35
2023-05-13T05:16:15.329Z,12.90
2023-05-13T05:18:41.945Z,12.77
2023-05-13T05:21:09.179Z,12.65
2023-05-13T05:23:36.347Z,11.48
2023-05-13T05:26:11.155Z,11.95
2023-05-13T05:28:38.468Z,11.80
2023-05-13T05:31:05.665Z,10.70
2023-05-13T05:33:32.273Z,11.20
2023-05-13T05:35:58.759Z,10.88
2023-05-13T05:38:25.356Z,10.95
2023-05-13T05:40:52.201Z,11.98
2023-05-13T05:43:19.036Z,10.73
2023-05-13T05:45:45.981Z,10.50
2023-05-13T05:48:12.600Z,11.65
2023-05-13T05:50:39.197Z,11.35
2023-05-13T05:53:05.682Z,11.02
2023-05-13T05:55:32.324Z,9.90
2023-05-13T05:57:59.204Z,9.77
2023-05-13T06:00:25.717Z,10.05
2023-05-13T06:02:52.312Z,10.07
2023-05-13T06:05:18.960Z,10.07
2023-05-13T06:07:45.628Z,9.88
2023-05-13T06:10:12.140Z,10.05
2023-05-13T06:12:38.669Z,10.40
2023-05-13T06:15:05.685Z,10.50
2023-05-13T06:17:32.234Z,10.75
2023-05-13T06:19:58.764Z,11.10
2023-05-13T06:22:25.246Z,11.32
2023-05-13T06:24:51.767Z,11.02
2023-05-13T06:27:18.339Z,10.77
2023-05-13T06:29:44.869Z,10.85
2023-05-13T06:32:11.349Z,11.45
2023-05-13T06:34:37.930Z,11.93
2023-05-13T06:37:04.596Z,11.38
2023-05-13T06:39:31.191Z,11.80
2023-05-13T06:41:57.675Z,10.80
2023-05-13T06:44:24.149Z,11.45
2023-05-13T06:46:50.739Z,9.77
2023-05-13T06:49:17.323Z,10.35
2023-05-13T06:51:43.859Z,9.93
2023-05-13T06:54:10.343Z,10.20
2023-05-13T06:56:36.870Z,10.40
2023-05-13T06:59:03.398Z,9.32
2023-05-13T07:01:30.015Z,11.63
2023-05-13T07:03:56.666Z,10.75
2023-05-13T07:06:23.216Z,10.00
2023-05-13T07:08:49.699Z,10.55
2023-05-13T07:11:16.277Z,10.45
2023-05-13T07:13:42.805Z,10.13
2023-05-13T07:16:09.307Z,10.40
2023-05-13T07:18:35.977Z,10.57
2023-05-13T07:21:02.583Z,10.07
2023-05-13T07:23:29.092Z,10.10
2023-05-13T07:25:55.625Z,10.30
2023-05-13T07:28:22.226Z,11.20
2023-05-13T07:30:48.844Z,10.05
2023-05-13T07:33:15.453Z,9.88
2023-05-13T07:35:42.062Z,10.02
2023-05-13T07:38:09.775Z,10.40
2023-05-13T07:40:36.477Z,10.38
2023-05-13T07:43:03.064Z,10.10
2023-05-13T07:45:29.599Z,9.95
2023-05-13T07:47:56.114Z,9.40
2023-05-13T07:50:22.835Z,10.48
2023-05-13T07:52:49.431Z,9.02
2023-05-13T07:55:16.322Z,9.30
2023-05-13T07:57:42.793Z,9.75
2023-05-13T08:00:10.005Z,9.73
2023-05-13T08:02:39.790Z,9.23
2023-05-13T08:05:07.009Z,9.02
2023-05-13T08:07:33.581Z,9.10
2023-05-13T08:10:00.152Z,8.80
2023-05-13T08:12:26.688Z,9.10
2023-05-13T08:14:53.275Z,8.93
2023-05-13T08:17:19.791Z,8.27
2023-05-13T08:19:47.493Z,8.60
2023-05-13T08:22:14.042Z,8.07
2023-05-13T08:24:40.547Z,8.57
2023-05-13T08:27:07.118Z,8.05
2023-05-13T08:29:33.597Z,7.97
2023-05-13T08:32:00.266Z,8.50
2023-05-13T08:34:26.797Z,8.27
2023-05-13T08:36:53.329Z,7.20
2023-05-13T08:39:19.818Z,7.60
2023-05-13T08:41:46.750Z,7.75
2023-05-13T08:44:14.233Z,7.13
2023-05-13T08:46:47.558Z,7.07
2023-05-13T08:49:14.239Z,7.38
2023-05-13T08:51:40.791Z,8.68
2023-05-13T08:54:10.630Z,12.85
2023-05-13T08:56:37.349Z,7.32
2023-05-13T08:59:03.895Z,7.53
2023-05-13T09:01:31.110Z,7.40
2023-05-13T09:04:08.932Z,8.10
2023-05-13T09:06:35.485Z,8.05
2023-05-13T09:09:02.134Z,7.28
2023-05-13T09:11:31.133Z,8.40
2023-05-13T09:13:59.473Z,7.25
2023-05-13T09:16:28.594Z,7.15
2023-05-13T09:19:05.959Z,8.23
2023-05-13T09:21:34.642Z,6.22
2023-05-13T09:24:12.788Z,5.63
2023-05-13T09:26:41.695Z,5.50
2023-05-13T09:29:25.171Z,5.10
2023-05-13T09:31:56.776Z,5.63
2023-05-13T09:34:29.361Z,5.65
2023-05-13T09:36:56.807Z,6.53
2023-05-13T09:39:23.543Z,6.57
2023-05-13T09:41:50.437Z,6.18
2023-05-13T09:44:16.961Z,6.40
2023-05-13T09:46:43.810Z,5.93
2023-05-13T09:49:10.598Z,6.22
2023-05-13T09:51:37.189Z,6.28
2023-05-13T09:54:07.522Z,6.95
2023-05-13T09:56:37.124Z,6.80
2023-05-13T09:59:03.953Z,6.75
2023-05-13T10:01:30.867Z,7.03
2023-05-13T10:03:58.648Z,6.90
2023-05-13T10:06:26.994Z,6.32
2023-05-13T10:08:55.481Z,6.07
2023-05-13T10:11:24.918Z,6.43
2023-05-13T10:14:02.121Z,6.25
2023-05-13T10:16:29.397Z,6.15
2023-05-13T10:18:59.104Z,6.93
2023-05-13T10:21:27.312Z,6.18
2023-05-13T10:23:54.271Z,6.45
2023-05-13T10:26:21.217Z,6.55
2023-05-13T10:28:49.229Z,6.32
2023-05-13T10:31:16.936Z,6.30
2023-05-13T10:33:44.256Z,5.47
2023-05-13T10:36:19.265Z,6.18
2023-05-13T10:39:10.778Z,6.22
2023-05-13T10:41:43.211Z,5.97
2023-05-13T10:44:10.684Z,7.20
2023-05-13T10:46:37.319Z,6.82
2023-05-13T10:49:03.851Z,6.68
2023-05-13T10:51:30.744Z,6.63
2023-05-13T10:53:57.803Z,6.82
2023-05-13T10:56:26.928Z,5.80
2023-05-13T10:59:03.492Z,6.72
2023-05-13T11:01:37.865Z,6.55
2023-05-13T11:04:05.843Z,6.63
2023-05-13T11:06:38.076Z,6.75
2023-05-13T11:09:13.018Z,6.70
2023-05-13T11:14:18.323Z,6.07
2023-05-13T11:17:01.655Z,6.78
2023-05-13T11:19:33.204Z,6.68
2023-05-13T11:22:18.721Z,6.07
2023-05-13T11:24:46.721Z,6.55
2023-05-13T11:27:15.716Z,7.40
2023-05-13T11:29:53.133Z,5.00
2023-05-13T11:32:50.658Z,4.50
2023-05-13T11:35:20.927Z,4.82
2023-05-13T11:37:47.704Z,5.05
2023-05-13T11:40:22.385Z,5.30
2023-05-13T11:42:49.743Z,6.60
2023-05-13T11:45:20.542Z,3.55
2023-05-13T11:47:47.681Z,4.07
2023-05-13T11:50:26.355Z,4.13
2023-05-13T11:53:00.923Z,4.40
2023-05-13T11:55:31.730Z,4.35
2023-05-13T11:57:59.792Z,4.13
2023-05-13T12:00:28.341Z,4.30
2023-05-13T12:02:56.067Z,3.83
2023-05-13T12:05:23.500Z,4.35
2023-05-13T12:07:51.126Z,3.67
2023-05-13T12:10:17.809Z,4.18
2023-05-13T12:12:45.867Z,3.80
2023-05-13T12:15:20.133Z,3.72
2023-05-13T12:17:47.635Z,4.03
2023-05-13T12:20:15.342Z,4.40
2023-05-13T12:22:44.842Z,3.47
2023-05-13T12:25:39.497Z,3.85
2023-05-13T12:28:17.583Z,3.70
2023-05-13T12:30:52.394Z,3.58
2023-05-13T12:33:24.708Z,3.80
2023-05-13T12:36:14.135Z,3.95
2023-05-13T12:38:52.945Z,3.55
2023-05-13T12:41:19.539Z,3.28
2023-05-13T12:43:46.127Z,3.15
2023-05-13T12:46:12.744Z,3.53
2023-05-13T12:48:39.500Z,3.10
2023-05-13T12:51:06.087Z,3.40
2023-05-13T12:53:32.575Z,3.08
2023-05-13T12:55:59.127Z,3.00
2023-05-13T12:58:25.671Z,2.60
2023-05-13T13:00:52.226Z,2.50
2023-05-13T13:03:20.465Z,2.80
2023-05-13T13:05:48.242Z,2.60
2023-05-13T13:08:14.807Z,2.67
2023-05-13T13:10:41.308Z,2.97
2023-05-13T13:13:07.830Z,2.13
2023-05-13T13:15:34.413Z,2.55
2023-05-13T13:18:00.984Z,2.20
2023-05-13T13:20:27.654Z,2.20
2023-05-13T13:22:54.247Z,2.40
2023-05-13T13:25:20.944Z,2.10
2023-05-13T13:27:47.641Z,2.20
2023-05-13T13:30:14.429Z,2.20
2023-05-13T13:32:40.987Z,3.03
2023-05-13T13:35:07.767Z,2.50
2023-05-13T13:37:35.473Z,2.25
2023-05-13T13:40:02.867Z,2.42
2023-05-13T13:42:42.809Z,2.38
2023-05-13T13:45:11.483Z,2.50
2023-05-13T13:47:38.078Z,2.10
2023-05-13T13:50:05.699Z,2.30
2023-05-13T13:52:32.270Z,2.42
2023-05-13T13:54:58.792Z,2.35
2023-05-13T13:57:25.273Z,2.10
2023-05-13T13:59:51.818Z,2.40
2023-05-13T14:02:18.335Z,2.30
2023-05-13T14:04:46.292Z,2.30
2023-05-13T14:07:12.876Z,2.30
2023-05-13T14:09:39.358Z,2.30
2023-05-13T14:12:05.928Z,2.20
2023-05-13T14:14:32.468Z,2.33
2023-05-13T14:16:59.026Z,2.15
2023-05-13T14:19:26.374Z,2.38
2023-05-13T14:21:52.900Z,2.60
2023-05-13T14:24:19.507Z,2.53
2023-05-13T14:26:46.036Z,2.40
2023-05-13T14:29:12.820Z,2.30
2023-05-13T14:31:39.406Z,2.55
2023-05-13T14:34:07.625Z,2.30
2023-05-13T14:36:34.682Z,2.42
2023-05-13T14:39:01.151Z,2.60
2023-05-13T14:41:27.680Z,2.45
2023-05-13T14:43:54.172Z,2.20
2023-05-13T14:46:20.745Z,2.53
2023-05-13T14:48:47.285Z,2.60
2023-05-13T14:51:13.793Z,2.80
2023-05-13T14:53:41.960Z,2.47
2023-05-13T14:56:08.509Z,2.25
2023-05-13T14:58:35.066Z,2.70
2023-05-13T15:01:01.868Z,2.72
2023-05-13T15:03:28.568Z,2.42
2023-05-13T15:05:55.208Z,2.63
2023-05-13T15:08:21.891Z,2.67
2023-05-13T15:10:48.376Z,2.42
2023-05-13T15:13:14.891Z,2.28
2023-05-13T15:15:41.387Z,2.95
2023-05-13T15:18:07.895Z,2.70
2023-05-13T15:20:34.417Z,2.47
2023-05-13T15:23:00.943Z,2.30
2023-05-13T15:25:27.502Z,2.85
2023-05-13T15:27:54.339Z,2.45
2023-05-13T15:30:20.961Z,2.55
2023-05-13T15:32:47.706Z,2.67
2023-05-13T15:35:15.592Z,3.08
2023-05-13T15:37:42.177Z,2.53
2023-05-13T15:40:09.061Z,2.90
2023-05-13T15:42:35.552Z,3.20
2023-05-13T15:45:02.181Z,3.13
2023-05-13T15:47:28.875Z,3.70
2023-05-13T15:49:55.546Z,3.50
2023-05-13T15:52:22.047Z,3.35
2023-05-13T15:54:48.580Z,3.03
2023-05-13T15:57:15.101Z,3.50
2023-05-13T15:59:41.621Z,3.75
2023-05-13T16:02:08.241Z,3.40
2023-05-13T16:04:35.037Z,3.42
2023-05-13T16:07:01.577Z,3.25
2023-05-13T16:09:28.069Z,3.38
2023-05-13T16:11:55.239Z,3.10
2023-05-13T16:14:21.754Z,3.15
2023-05-13T16:16:48.398Z,3.45
2023-05-13T16:19:14.990Z,3.30
2023-05-13T16:21:41.496Z,3.20
2023-05-13T16:24:08.099Z,2.70
2023-05-13T16:26:34.679Z,2.80
2023-05-13T16:29:01.188Z,2.72
2023-05-13T16:31:27.761Z,2.75
2023-05-13T16:33:54.389Z,3.05
2023-05-13T16:36:20.909Z,2.65
2023-05-13T16:38:47.440Z,2.80
2023-05-13T16:41:13.950Z,2.78
2023-05-13T16:43:40.500Z,3.38
2023-05-13T16:46:07.045Z,2.78
2023-05-13T16:48:33.613Z,2.95
2023-05-13T16:51:00.185Z,3.05
2023-05-13T16:53:26.711Z,3.00
2023-05-13T16:55:53.268Z,3.00
2023-05-13T16:58:19.774Z,4.20
2023-05-13T17:00:46.358Z,3.60
2023-05-13T17:03:13.284Z,3.78
2023-05-13T17:05:40.101Z,3.95
2023-05-13T17:08:06.670Z,3.85
2023-05-13T17:10:33.305Z,3.67
2023-05-13T17:12:59.847Z,3.58
2023-05-13T17:15:26.360Z,3.67
2023-05-13T17:17:52.969Z,5.00
2023-05-13T17:20:19.793Z,4.95
2023-05-13T17:22:46.399Z,4.78
2023-05-13T17:25:13.821Z,4.22
2023-05-13T17:27:40.364Z,4.82
2023-05-13T17:30:08.000Z,4.60
2023-05-13T17:32:34.929Z,5.30
2023-05-13T17:35:01.598Z,4.25
2023-05-13T17:37:28.178Z,4.22
2023-05-13T17:39:54.782Z,4.78
2023-05-13T17:42:21.365Z,4.35
2023-05-13T17:44:48.061Z,5.22
2023-05-13T17:47:14.666Z,17.83
2023-05-13T17:49:41.213Z,4.45
2023-05-13T17:52:07.756Z,5.18
2023-05-13T17:54:34.316Z,6.05
2023-05-13T17:57:00.852Z,4.68
2023-05-13T17:59:27.412Z,6.07
2023-05-13T18:01:53.939Z,6.22
2023-05-13T18:04:20.487Z,7.40
2023-05-13T18:06:53.271Z,5.85
2023-05-13T18:09:19.822Z,5.32
2023-05-13T18:11:46.336Z,5.13
2023-05-13T18:14:12.902Z,4.95
2023-05-13T18:16:39.428Z,6.20
2023-05-13T18:19:06.090Z,5.43
2023-05-13T18:21:32.700Z,4.72
2023-05-13T18:23:59.406Z,5.05
2023-05-13T18:26:26.374Z,5.32
2023-05-13T18:28:52.893Z,6.78
2023-05-13T18:31:19.481Z,6.18
2023-05-13T18:33:46.104Z,5.82
2023-05-13T18:36:12.662Z,6.63
2023-05-13T18:38:39.185Z,6.88
2023-05-13T18:41:05.974Z,5.95
2023-05-13T18:43:32.482Z,6.60
2023-05-13T18:45:59.182Z,6.70
2023-05-13T18:48:25.713Z,6.68
2023-05-13T18:50:52.283Z,6.28
2023-05-13T18:53:19.089Z,6.70
2023-05-13T18:55:46.031Z,6.95
2023-05-13T18:58:12.589Z,6.38
2023-05-13T19:00:39.285Z,6.68
2023-05-13T19:03:05.935Z,6.38
2023-05-13T19:05:32.624Z,7.57
2023-05-13T19:07:59.307Z,6.65
2023-05-13T19:10:26.175Z,7.10
2023-05-13T19:12:52.708Z,7.68
2023-05-13T19:15:19.195Z,8.10
2023-05-13T19:17:46.563Z,7.25
2023-05-13T19:20:13.341Z,7.40
2023-05-13T19:22:39.899Z,7.07
2023-05-13T19:25:06.592Z,7.20
2023-05-13T19:27:33.163Z,7.55
2023-05-13T19:29:59.667Z,7.60
2023-05-13T19:32:26.345Z,8.38
2023-05-13T19:34:53.015Z,8.68
2023-05-13T19:37:21.949Z,7.95
2023-05-13T19:39:48.524Z,7.50
2023-05-13T19:42:15.252Z,7.13
2023-05-13T19:44:41.792Z,7.68
2023-05-13T19:47:08.588Z,8.05
2023-05-13T19:49:35.226Z,7.53
2023-05-13T19:52:02.792Z,7.13
2023-05-13T19:54:29.335Z,7.55
2023-05-13T19:56:56.036Z,7.18
2023-05-13T19:59:22.564Z,7.88
2023-05-13T20:01:49.148Z,6.60
2023-05-13T20:04:15.851Z,7.45
2023-05-13T20:06:42.649Z,8.20
2023-05-13T20:09:10.271Z,8.05
2023-05-13T20:11:36.783Z,7.30
2023-05-13T20:14:03.316Z,7.85
2023-05-13T20:16:29.852Z,7.72
2023-05-13T20:18:56.517Z,7.43
2023-05-13T20:21:23.107Z,7.68
2023-05-13T20:23:51.100Z,7.88
2023-05-13T20:26:17.653Z,7.80
2023-05-13T20:28:44.205Z,7.93
2023-05-13T20:31:10.933Z,8.52
2023-05-13T20:33:37.467Z,9.38
2023-05-13T20:36:04.082Z,8.65
2023-05-13T20:38:30.576Z,7.75
2023-05-13T20:40:57.086Z,8.68
2023-05-13T20:43:23.720Z,8.43
2023-05-13T20:45:50.875Z,8.90
2023-05-13T20:48:17.540Z,8.70
2023-05-13T20:50:44.174Z,8.15
2023-05-13T20:53:11.577Z,8.57
2023-05-13T20:55:39.326Z,7.82
2023-05-13T20:58:06.609Z,8.00
2023-05-13T21:00:34.068Z,9.02
2023-05-13T21:03:01.167Z,9.32
2023-05-13T21:05:28.989Z,10.63
2023-05-13T21:07:55.937Z,11.60
2023-05-13T21:10:24.125Z,10.77
2023-05-13T21:12:50.891Z,11.02
2023-05-13T21:15:17.431Z,10.80
2023-05-13T21:17:44.050Z,9.95
2023-05-13T21:20:11.333Z,10.05
2023-05-13T21:22:37.841Z,10.65
2023-05-13T21:25:04.852Z,10.20
2023-05-13T21:27:31.337Z,9.93
2023-05-13T21:29:57.812Z,10.15
2023-05-13T21:32:24.378Z,11.23
2023-05-13T21:34:50.909Z,10.68
2023-05-13T21:37:17.514Z,10.75
2023-05-13T21:39:44.094Z,10.20
2023-05-13T21:42:10.581Z,11.05
2023-05-13T21:44:37.066Z,10.90
2023-05-13T21:47:03.617Z,10.85
2023-05-13T21:49:30.144Z,11.10
2023-05-13T21:51:56.681Z,11.45
2023-05-13T21:54:23.216Z,12.45
2023-05-13T21:56:49.707Z,13.13
2023-05-13T21:59:16.198Z,12.50
2023-05-13T22:01:42.717Z,11.95
2023-05-13T22:04:09.423Z,12.50
2023-05-13T22:06:35.955Z,12.00
2023-05-13T22:09:03.379Z,11.63
2023-05-13T22:11:30.725Z,12.30
2023-05-13T22:13:59.480Z,11.27
2023-05-13T22:16:26.705Z,10.35
2023-05-13T22:18:53.310Z,10.93
2023-05-13T22:21:19.905Z,11.30
2023-05-13T22:23:46.412Z,11.90
2023-05-13T22:26:12.890Z,12.88
2023-05-13T22:28:39.383Z,13.20
2023-05-13T22:31:06.167Z,13.63
2023-05-13T22:33:33.485Z,12.93
2023-05-13T22:36:01.101Z,13.73
2023-05-13T22:38:28.862Z,13.25
2023-05-13T22:40:56.520Z,13.82
2023-05-13T22:43:24.255Z,11.93
2023-05-13T22:45:51.272Z,12.00
2023-05-13T22:48:18.056Z,12.40
2023-05-13T22:50:44.917Z,11.73
2023-05-13T22:53:13.281Z,13.10
2023-05-13T22:55:39.924Z,12.57
2023-05-13T22:58:06.637Z,12.43
2023-05-13T23:00:34.577Z,12.30
2023-05-13T23:03:41.424Z,12.88
2023-05-13T23:06:08.025Z,11.75
2023-05-13T23:08:43.702Z,11.73
2023-05-13T23:13:53.788Z,12.00
2023-05-13T23:16:20.357Z,12.38
2023-05-13T23:18:46.964Z,13.13
2023-05-13T23:21:13.573Z,12.38
2023-05-13T23:23:40.091Z,13.32
2023-05-13T23:26:06.598Z,12.23
2023-05-13T23:28:33.267Z,12.57
2023-05-13T23:30:59.824Z,12.35
2023-05-13T23:33:26.326Z,13.20
2023-05-13T23:35:56.308Z,13.95
2023-05-13T23:38:23.113Z,12.00
2023-05-13T23:40:50.093Z,12.77
2023-05-13T23:43:17.628Z,12.73
2023-05-13T23:45:46.266Z,13.60
2023-05-13T23:48:13.734Z,14.07
2023-05-13T23:50:41.525Z,12.50
2023-05-13T23:53:08.641Z,11.77
2023-05-13T23:55:35.501Z,11.60
2023-05-13T23:58:02.025Z,11.52
